Time;durP1;ratioP1;P1;durP2;ratioP2;P2;SDS_P1;SDS_P2;PMS_P1;PMS_P2;Temp;Humidity;BMP_temperature;BMP_pressure;BME280_temperature;BME280_humidity;BME280_pressure;Samples;Min_cycle;Max_cycle;Signal;HPM_P1;HPM_P2
2023/05/13 00:00:05;;;;;;;6.85;4.78;;;;;;;;;;5033053;28;21035;-85
2023/05/13 00:02:31;;;;;;;5.82;5.20;;;;;;;;;;5032417;28;20421;-86
2023/05/13 00:04:57;;;;;;;9.60;5.35;;;;;;;;;;5032844;28;20493;-86
2023/05/13 00:07:27;;;;;;;5.90;5.07;;;;;;;;;;5031862;28;20451;-86
2023/05/13 00:09:53;;;;;;;6.80;5.40;;;;;;;;;;5032507;28;20421;-86
2023/05/13 00:12:19;;;;;;;5.30;4.80;;;;;;;;;;5031352;28;20472;-86
2023/05/13 00:14:47;;;;;;;6.60;5.40;;;;;;;;;;5016292;28;20414;-86
2023/05/13 00:17:16;;;;;;;8.88;5.20;;;;;;;;;;5032704;28;20417;-86
2023/05/13 00:19:42;;;;;;;8.17;5.23;;;;;;;;;;5017000;28;20219;-86
2023/05/13 00:22:11;;;;;;;6.55;5.00;;;;;;;;;;5032431;28;20433;-86
2023/05/13 00:24:37;;;;;;;6.63;5.30;;;;;;;;;;5032249;28;20456;-86
2023/05/13 00:27:09;;;;;;;6.20;5.40;;;;;;;;;;5032451;28;20449;-86
2023/05/13 00:29:37;;;;;;;5.37;4.80;;;;;;;;;;5033184;28;20216;-86
2023/05/13 00:32:03;;;;;;;6.20;5.40;;;;;;;;;;5031649;28;20432;-86
2023/05/13 00:34:36;;;;;;;6.87;5.40;;;;;;;;;;5032991;28;20237;-87
2023/05/13 00:37:05;;;;;;;7.70;5.72;;;;;;;;;;5032156;28;20409;-86
2023/05/13 00:39:31;;;;;;;10.30;5.40;;;;;;;;;;5033338;28;20184;-86
2023/05/13 00:41:58;;;;;;;6.30;5.20;;;;;;;;;;5015584;28;20192;-86
2023/05/13 00:44:24;;;;;;;6.97;5.47;;;;;;;;;;5033239;28;20184;-86
2023/05/13 00:46:53;;;;;;;6.73;5.07;;;;;;;;;;5033075;28;20176;-86
2023/05/13 00:49:19;;;;;;;7.45;5.80;;;;;;;;;;5032475;28;20409;-87
2023/05/13 00:51:45;;;;;;;6.30;5.70;;;;;;;;;;5031549;28;20212;-86
2023/05/13 00:54:14;;;;;;;6.23;5.63;;;;;;;;;;5032872;28;20207;-86
2023/05/13 00:56:40;;;;;;;9.53;6.60;;;;;;;;;;5032818;28;20172;-87
2023/05/13 00:59:06;;;;;;;8.40;5.60;;;;;;;;;;5031856;28;20223;-86
2023/05/13 01:01:38;;;;;;;8.20;6.13;;;;;;;;;;5016083;28;20207;-87
2023/05/13 01:04:16;;;;;;;8.13;6.33;;;;;;;;;;5032843;28;20177;-87
2023/05/13 01:06:51;;;;;;;7.33;5.70;;;;;;;;;;5032782;28;20207;-86
2023/05/13 01:09:29;;;;;;;7.60;6.17;;;;;;;;;;5031841;28;20188;-87
2023/05/13 01:12:01;;;;;;;8.65;7.50;;;;;;;;;;5031858;28;20425;-87
2023/05/13 01:14:32;;;;;;;9.02;6.20;;;;;;;;;;5031593;28;20425;-87
2023/05/13 01:17:01;;;;;;;7.83;6.70;;;;;;;;;;5031906;28;20484;-87
2023/05/13 01:19:49;;;;;;;9.63;7.50;;;;;;;;;;5030815;28;20426;-87
2023/05/13 01:22:15;;;;;;;9.30;7.20;;;;;;;;;;5031566;28;20492;-86
2023/05/13 01:24:44;;;;;;;8.93;6.88;;;;;;;;;;5014379;28;20413;-87
2023/05/13 01:27:10;;;;;;;7.85;6.90;;;;;;;;;;5013958;28;20432;-86
2023/05/13 01:29:37;;;;;;;10.30;7.10;;;;;;;;;;5010802;28;20284;-86
2023/05/13 01:32:07;;;;;;;8.27;6.80;;;;;;;;;;4995728;28;20458;-86
2023/05/13 01:34:33;;;;;;;9.00;6.67;;;;;;;;;;4996381;28;20173;-87
2023/05/13 01:37:00;;;;;;;10.93;6.70;;;;;;;;;;5013643;28;20413;-87
2023/05/13 01:39:30;;;;;;;9.18;7.43;;;;;;;;;;4998941;28;20418;-86
2023/05/13 01:41:56;;;;;;;7.73;6.80;;;;;;;;;;5015537;28;20172;-87
2023/05/13 01:44:25;;;;;;;7.60;6.60;;;;;;;;;;5005159;28;20181;-87
2023/05/13 01:46:52;;;;;;;8.70;7.10;;;;;;;;;;4996221;28;20185;-87
2023/05/13 01:49:18;;;;;;;8.70;6.47;;;;;;;;;;4996388;28;20182;-87
2023/05/13 01:51:47;;;;;;;9.27;7.17;;;;;;;;;;4980372;28;20205;-86
2023/05/13 01:54:13;;;;;;;8.60;7.47;;;;;;;;;;5004748;28;20216;-86
2023/05/13 01:56:39;;;;;;;9.63;8.63;;;;;;;;;;4998537;28;20435;-87
2023/05/13 01:59:05;;;;;;;10.90;7.27;;;;;;;;;;5016178;28;20416;-87
2023/05/13 02:01:33;;;;;;;9.45;7.47;;;;;;;;;;5016928;28;20428;-86
2023/05/13 02:04:00;;;;;;;9.40;7.23;;;;;;;;;;5019443;28;20192;-87
2023/05/13 02:06:26;;;;;;;8.60;6.73;;;;;;;;;;5019382;28;20197;-87
2023/05/13 02:08:55;;;;;;;7.97;7.10;;;;;;;;;;5019190;28;20268;-87
2023/05/13 02:11:21;;;;;;;8.20;7.03;;;;;;;;;;5017168;28;20188;-87
2023/05/13 02:13:47;;;;;;;7.63;6.90;;;;;;;;;;5003223;28;20216;-87
2023/05/13 02:16:14;;;;;;;8.88;7.75;;;;;;;;;;5002223;28;20420;-87
2023/05/13 02:18:42;;;;;;;8.53;7.60;;;;;;;;;;5018674;28;20406;-87
2023/05/13 02:21:09;;;;;;;9.35;7.30;;;;;;;;;;5007305;28;20423;-87
2023/05/13 02:23:35;;;;;;;9.13;7.10;;;;;;;;;;5017652;28;20180;-87
2023/05/13 02:26:03;;;;;;;9.10;7.13;;;;;;;;;;5019230;28;20184;-87
2023/05/13 02:28:29;;;;;;;8.93;6.80;;;;;;;;;;5002714;28;20204;-87
2023/05/13 02:30:56;;;;;;;9.47;7.27;;;;;;;;;;4998903;28;20276;-87
2023/05/13 02:33:22;;;;;;;9.47;7.30;;;;;;;;;;5010259;28;20209;-87
2023/05/13 02:35:53;;;;;;;9.07;7.20;;;;;;;;;;5010181;28;20411;-87
2023/05/13 02:38:31;;;;;;;8.27;7.47;;;;;;;;;;5011842;28;20445;-87
2023/05/13 02:41:00;;;;;;;10.00;8.00;;;;;;;;;;5009991;28;20403;-86
2023/05/13 02:43:26;;;;;;;8.77;7.88;;;;;;;;;;5007401;28;20418;-86
2023/05/13 02:45:58;;;;;;;10.30;8.10;;;;;;;;;;5009643;28;20460;-86
2023/05/13 02:48:24;;;;;;;9.30;8.33;;;;;;;;;;5018877;28;20180;-86
2023/05/13 02:50:50;;;;;;;11.17;8.20;;;;;;;;;;5007167;28;20169;-87
2023/05/13 02:53:16;;;;;;;9.93;7.67;;;;;;;;;;5008942;28;20266;-86
2023/05/13 02:55:45;;;;;;;8.60;7.73;;;;;;;;;;5008202;28;20165;-87
2023/05/13 02:58:11;;;;;;;9.67;8.67;;;;;;;;;;5009806;28;20176;-87
2023/05/13 03:00:37;;;;;;;8.70;7.80;;;;;;;;;;5006340;28;20256;-87
2023/05/13 03:03:06;;;;;;;10.97;8.27;;;;;;;;;;5008045;28;20201;-86
2023/05/13 03:05:35;;;;;;;10.13;8.57;;;;;;;;;;4993056;28;20368;-86
2023/05/13 03:08:01;;;;;;;9.60;8.60;;;;;;;;;;5009665;28;20494;-87
2023/05/13 03:10:29;;;;;;;10.73;8.40;;;;;;;;;;5007289;28;20204;-86
2023/05/13 03:12:55;;;;;;;9.60;8.43;;;;;;;;;;5008958;28;20204;-86
2023/05/13 03:15:22;;;;;;;8.90;8.00;;;;;;;;;;5009632;28;20177;-86
2023/05/13 03:17:50;;;;;;;12.70;8.63;;;;;;;;;;5010552;28;20177;-87
2023/05/13 03:20:16;;;;;;;8.63;7.83;;;;;;;;;;4998363;28;20236;-86
2023/05/13 03:22:42;;;;;;;9.77;8.80;;;;;;;;;;4998442;28;20179;-86
2023/05/13 03:25:08;;;;;;;10.97;8.30;;;;;;;;;;5004077;28;20196;-86
2023/05/13 03:27:37;;;;;;;9.20;8.30;;;;;;;;;;5017931;28;20190;-86
2023/05/13 03:30:03;;;;;;;12.18;9.50;;;;;;;;;;5011994;28;20445;-86
2023/05/13 03:32:30;;;;;;;11.68;10.30;;;;;;;;;;4997257;28;20427;-86
2023/05/13 03:34:59;;;;;;;10.53;9.40;;;;;;;;;;4997633;28;20277;-86
2023/05/13 03:37:26;;;;;;;12.23;9.50;;;;;;;;;;4997362;28;20411;-86
2023/05/13 03:39:52;;;;;;;13.37;8.73;;;;;;;;;;4996525;28;20186;-87
2023/05/13 03:42:22;;;;;;;10.67;9.03;;;;;;;;;;4992746;28;20398;-87
2023/05/13 03:44:48;;;;;;;12.53;9.10;;;;;;;;;;4996560;28;20177;-87
2023/05/13 03:47:14;;;;;;;10.90;9.85;;;;;;;;;;4981729;28;20415;-87
2023/05/13 03:49:43;;;;;;;11.07;9.98;;;;;;;;;;4996212;28;20530;-87
2023/05/13 03:52:09;;;;;;;12.05;10.40;;;;;;;;;;4997132;28;20485;-87
2023/05/13 03:54:35;;;;;;;11.35;10.35;;;;;;;;;;4997367;28;20407;-86
2023/05/13 03:57:04;;;;;;;10.53;9.07;;;;;;;;;;4995796;28;20188;-87
2023/05/13 03:59:30;;;;;;;13.07;9.88;;;;;;;;;;4997285;28;20483;-87
2023/05/13 04:01:56;;;;;;;11.40;10.30;;;;;;;;;;4997188;28;20550;-86
2023/05/13 04:04:22;;;;;;;12.13;10.88;;;;;;;;;;4996979;28;20506;-87
2023/05/13 04:06:51;;;;;;;11.85;10.15;;;;;;;;;;4995353;28;20423;-87
2023/05/13 04:09:17;;;;;;;12.27;10.55;;;;;;;;;;4995525;28;20531;-86
2023/05/13 04:11:51;;;;;;;11.63;9.60;;;;;;;;;;4995733;28;20308;-87
2023/05/13 04:14:18;;;;;;;11.35;10.25;;;;;;;;;;4980849;28;20419;-86
2023/05/13 04:16:44;;;;;;;11.13;10.10;;;;;;;;;;4995061;28;20185;-87
2023/05/13 04:19:12;;;;;;;11.70;9.73;;;;;;;;;;4979772;28;20217;-86
2023/05/13 04:21:46;;;;;;;12.70;10.00;;;;;;;;;;4981066;28;20197;-86
2023/05/13 04:24:12;;;;;;;12.00;10.17;;;;;;;;;;4980620;28;20173;-87
2023/05/13 04:26:38;;;;;;;12.70;10.47;;;;;;;;;;4995971;28;20191;-87
2023/05/13 04:29:10;;;;;;;12.68;11.38;;;;;;;;;;4979614;28;20434;-86
2023/05/13 04:31:36;;;;;;;12.82;11.50;;;;;;;;;;4996069;28;21157;-86
2023/05/13 04:34:02;;;;;;;13.68;11.13;;;;;;;;;;4996099;28;20423;-87
2023/05/13 04:36:30;;;;;;;12.60;11.30;;;;;;;;;;4980517;28;20506;-87
2023/05/13 04:38:56;;;;;;;12.50;11.27;;;;;;;;;;4997106;28;20459;-87
2023/05/13 04:41:22;;;;;;;12.02;10.82;;;;;;;;;;4982644;28;20414;-87
2023/05/13 04:43:49;;;;;;;12.80;11.50;;;;;;;;;;4999025;28;20402;-87
2023/05/13 04:46:17;;;;;;;12.95;11.55;;;;;;;;;;4998753;28;20427;-87
2023/05/13 04:48:47;;;;;;;12.47;11.20;;;;;;;;;;4999318;28;20176;-86
2023/05/13 04:51:15;;;;;;;13.40;10.67;;;;;;;;;;4997468;28;20180;-87
2023/05/13 04:53:41;;;;;;;13.55;12.13;;;;;;;;;;4994855;28;20431;-87
2023/05/13 04:56:08;;;;;;;13.30;11.10;;;;;;;;;;4997130;28;20268;-86
2023/05/13 04:58:37;;;;;;;12.00;10.70;;;;;;;;;;4999268;28;20181;-87
2023/05/13 05:01:03;;;;;;;12.50;11.38;;;;;;;;;;4998477;28;20458;-86
2023/05/13 05:03:29;;;;;;;13.00;11.68;;;;;;;;;;4983293;28;20434;-86
2023/05/13 05:05:59;;;;;;;12.95;11.60;;;;;;;;;;4998569;28;20403;-86
2023/05/13 05:08:27;;;;;;;12.65;11.40;;;;;;;;;;4998659;28;20399;-87
2023/05/13 05:10:53;;;;;;;13.60;12.25;;;;;;;;;;4998860;28;20458;-86
2023/05/13 05:13:22;;;;;;;12.40;11.20;;;;;;;;;;4995753;28;20434;-86
2023/05/13 05:15:49;;;;;;;12.52;11.23;;;;;;;;;;4999704;28;20415;-86
2023/05/13 05:18:15;;;;;;;14.43;11.63;;;;;;;;;;4981355;28;20407;-86
2023/05/13 05:20:43;;;;;;;12.88;11.57;;;;;;;;;;4993977;28;20452;-86
2023/05/13 05:23:10;;;;;;;13.98;11.80;;;;;;;;;;4993930;28;20416;-86
2023/05/13 05:25:36;;;;;;;12.57;11.30;;;;;;;;;;4997058;28;20466;-86
2023/05/13 05:28:03;;;;;;;12.88;11.60;;;;;;;;;;5001588;28;20420;-86
2023/05/13 05:30:31;;;;;;;13.55;12.10;;;;;;;;;;5015901;28;20437;-86
2023/05/13 05:32:58;;;;;;;12.00;10.90;;;;;;;;;;5004135;28;20491;-86
2023/05/13 05:35:24;;;;;;;13.43;11.75;;;;;;;;;;4993006;28;20406;-86
2023/05/13 05:37:52;;;;;;;13.07;11.80;;;;;;;;;;5008752;28;20437;-86
2023/05/13 05:40:21;;;;;;;12.55;11.35;;;;;;;;;;4997748;28;20439;-86
2023/05/13 05:42:50;;;;;;;13.05;11.73;;;;;;;;;;5002933;28;20449;-86
2023/05/13 05:45:16;;;;;;;12.73;11.45;;;;;;;;;;5015272;28;20429;-86
2023/05/13 05:47:42;;;;;;;13.45;11.93;;;;;;;;;;5034369;28;20405;-87
2023/05/13 05:50:09;;;;;;;12.23;11.02;;;;;;;;;;4985768;28;20543;-86
2023/05/13 05:52:37;;;;;;;13.02;11.80;;;;;;;;;;5010538;28;20425;-86
2023/05/13 05:55:05;;;;;;;13.20;11.57;;;;;;;;;;4997346;28;20441;-86
2023/05/13 05:57:34;;;;;;;13.57;11.40;;;;;;;;;;5013037;28;20413;-86
2023/05/13 06:00:01;;;;;;;12.98;11.55;;;;;;;;;;5029226;28;20457;-87
2023/05/13 06:02:27;;;;;;;13.70;11.57;;;;;;;;;;5006077;28;20413;-86
2023/05/13 06:04:53;;;;;;;12.55;11.27;;;;;;;;;;5000430;28;20415;-86
2023/05/13 06:07:21;;;;;;;11.80;10.60;;;;;;;;;;5000834;28;20409;-87
2023/05/13 06:09:47;;;;;;;12.18;10.85;;;;;;;;;;5010200;28;20411;-86
2023/05/13 06:12:13;;;;;;;11.98;10.77;;;;;;;;;;5008235;28;20435;-86
2023/05/13 06:14:43;;;;;;;12.43;11.20;;;;;;;;;;5008713;28;20421;-86
2023/05/13 06:17:09;;;;;;;11.32;10.23;;;;;;;;;;5008172;28;20413;-87
2023/05/13 06:19:35;;;;;;;12.32;10.82;;;;;;;;;;4990804;28;20407;-86
2023/05/13 06:22:01;;;;;;;11.75;10.55;;;;;;;;;;5008930;28;20527;-85
2023/05/13 06:24:27;;;;;;;11.15;10.02;;;;;;;;;;5011513;28;20441;-84
2023/05/13 06:26:56;;;;;;;12.10;10.80;;;;;;;;;;5001518;28;20437;-86
2023/05/13 06:29:22;;;;;;;12.20;11.00;;;;;;;;;;5028179;28;20427;-86
2023/05/13 06:31:51;;;;;;;10.80;9.70;;;;;;;;;;4987450;28;20488;-85
2023/05/13 06:34:17;;;;;;;11.00;9.90;;;;;;;;;;5004804;28;20426;-87
2023/05/13 06:36:43;;;;;;;12.02;10.60;;;;;;;;;;4998320;28;20404;-87
2023/05/13 06:39:12;;;;;;;11.35;10.15;;;;;;;;;;4998276;28;20496;-86
2023/05/13 06:41:41;;;;;;;12.15;9.85;;;;;;;;;;5011694;28;20419;-86
2023/05/13 06:44:07;;;;;;;11.27;9.38;;;;;;;;;;5017617;28;20464;-86
2023/05/13 06:46:36;;;;;;;12.65;9.52;;;;;;;;;;5001513;28;20417;-87
2023/05/13 06:49:02;;;;;;;9.90;8.93;;;;;;;;;;5017933;28;20406;-87
2023/05/13 06:51:30;;;;;;;11.35;9.20;;;;;;;;;;5017214;28;20460;-86
2023/05/13 06:53:58;;;;;;;9.70;8.90;;;;;;;;;;5017511;28;20452;-87
2023/05/13 06:56:28;;;;;;;10.88;8.70;;;;;;;;;;5017301;28;20405;-86
2023/05/13 06:58:56;;;;;;;9.77;8.70;;;;;;;;;;5015479;28;20453;-84
2023/05/13 07:01:22;;;;;;;11.65;9.27;;;;;;;;;;5016205;28;20406;-84
2023/05/13 07:03:48;;;;;;;10.67;9.57;;;;;;;;;;5017065;28;20405;-85
2023/05/13 07:06:14;;;;;;;10.43;8.80;;;;;;;;;;4993775;28;20474;-84
2023/05/13 07:08:40;;;;;;;10.00;8.80;;;;;;;;;;5017084;28;20488;-84
2023/05/13 07:11:06;;;;;;;12.15;8.75;;;;;;;;;;5000898;28;20406;-84
2023/05/13 07:13:33;;;;;;;9.30;8.40;;;;;;;;;;5017309;28;20436;-84
2023/05/13 07:16:01;;;;;;;13.40;8.82;;;;;;;;;;5001225;28;20421;-84
2023/05/13 07:18:27;;;;;;;12.80;8.43;;;;;;;;;;5017094;28;20540;-84
2023/05/13 07:20:55;;;;;;;8.95;8.05;;;;;;;;;;5000946;28;20503;-85
2023/05/13 07:23:21;;;;;;;9.77;8.30;;;;;;;;;;5015733;28;20421;-86
2023/05/13 07:25:50;;;;;;;11.48;8.25;;;;;;;;;;5009471;28;20421;-86
2023/05/13 07:28:16;;;;;;;9.07;8.18;;;;;;;;;;4997232;28;20421;-86
2023/05/13 07:30:48;;;;;;;9.23;8.20;;;;;;;;;;5005594;28;20448;-86
2023/05/13 07:33:14;;;;;;;11.10;8.00;;;;;;;;;;4997273;28;20435;-84
2023/05/13 07:35:40;;;;;;;10.00;8.18;;;;;;;;;;4995837;28;20486;-84
2023/05/13 07:38:10;;;;;;;9.70;8.30;;;;;;;;;;4980357;28;20447;-84
2023/05/13 07:40:37;;;;;;;9.30;7.88;;;;;;;;;;4996706;28;20423;-85
2023/05/13 07:43:03;;;;;;;8.57;7.75;;;;;;;;;;4997239;28;20419;-85
2023/05/13 07:45:32;;;;;;;9.75;8.00;;;;;;;;;;4992993;28;20452;-86
2023/05/13 07:47:58;;;;;;;8.45;7.65;;;;;;;;;;4978260;28;20417;-85
2023/05/13 07:50:24;;;;;;;8.73;7.85;;;;;;;;;;4982463;28;20501;-85
2023/05/13 07:52:50;;;;;;;9.77;7.40;;;;;;;;;;4995628;28;20528;-84
2023/05/13 07:55:22;;;;;;;9.35;7.32;;;;;;;;;;4996616;28;20426;-86
2023/05/13 07:57:48;;;;;;;8.93;7.20;;;;;;;;;;4996096;28;20423;-87
2023/05/13 08:00:17;;;;;;;9.05;7.07;;;;;;;;;;4990235;28;20418;-86
2023/05/13 08:02:43;;;;;;;10.00;7.70;;;;;;;;;;4986913;28;20467;-86
2023/05/13 08:05:09;;;;;;;9.52;7.10;;;;;;;;;;4977690;28;20409;-86
2023/05/13 08:07:36;;;;;;;9.60;6.60;;;;;;;;;;4977076;28;20427;-85
2023/05/13 08:10:02;;;;;;;7.63;6.80;;;;;;;;;;4981245;28;20415;-86
2023/05/13 08:12:28;;;;;;;9.80;6.80;;;;;;;;;;4980030;28;20442;-86
2023/05/13 08:14:54;;;;;;;7.97;6.15;;;;;;;;;;4980499;28;20553;-86
2023/05/13 08:17:21;;;;;;;7.18;6.47;;;;;;;;;;4976886;28;20421;-86
2023/05/13 08:19:50;;;;;;;10.82;6.18;;;;;;;;;;4977807;28;20408;-85
2023/05/13 08:22:16;;;;;;;9.63;5.88;;;;;;;;;;4977388;28;20491;-85
2023/05/13 08:24:42;;;;;;;8.63;5.72;;;;;;;;;;4992989;28;20435;-87
2023/05/13 08:27:11;;;;;;;8.63;6.03;;;;;;;;;;4996307;28;20474;-86
2023/05/13 08:29:37;;;;;;;9.30;5.90;;;;;;;;;;4980547;28;20443;-86
2023/05/13 08:32:04;;;;;;;9.83;5.73;;;;;;;;;;4996950;28;20239;-85
2023/05/13 08:34:33;;;;;;;10.03;5.73;;;;;;;;;;4997183;28;20181;-87
2023/05/13 08:36:59;;;;;;;6.93;6.10;;;;;;;;;;4978843;28;20226;-86
2023/05/13 08:39:25;;;;;;;9.30;6.30;;;;;;;;;;4977722;28;20173;-86
2023/05/13 08:41:55;;;;;;;9.27;6.20;;;;;;;;;;4995456;28;20208;-86
2023/05/13 08:44:27;;;;;;;7.43;5.70;;;;;;;;;;4997087;28;20217;-86
2023/05/13 08:46:59;;;;;;;10.83;6.10;;;;;;;;;;4982055;28;20186;-86
2023/05/13 08:49:28;;;;;;;7.57;6.23;;;;;;;;;;4977732;28;20189;-87
2023/05/13 08:51:54;;;;;;;15.53;6.20;;;;;;;;;;4991323;28;20204;-86
2023/05/13 08:54:23;;;;;;;7.83;5.90;;;;;;;;;;4994363;28;20185;-85
2023/05/13 08:56:52;;;;;;;6.90;5.80;;;;;;;;;;4997582;28;20183;-86
2023/05/13 08:59:18;;;;;;;7.83;6.10;;;;;;;;;;4987216;28;20189;-86
2023/05/13 09:01:44;;;;;;;11.07;6.57;;;;;;;;;;4979858;28;20208;-86
2023/05/13 09:04:12;;;;;;;6.23;5.60;;;;;;;;;;4995062;28;20235;-86
2023/05/13 09:06:42;;;;;;;6.20;5.60;;;;;;;;;;4996126;28;20275;-86
2023/05/13 09:09:08;;;;;;;9.83;5.87;;;;;;;;;;4980098;28;20276;-85
2023/05/13 09:11:38;;;;;;;6.23;5.73;;;;;;;;;;4982436;28;20177;-86
2023/05/13 09:14:10;;;;;;;8.23;5.67;;;;;;;;;;4991143;28;20197;-86
2023/05/13 09:16:40;;;;;;;5.70;5.10;;;;;;;;;;4989947;28;20434;-85
2023/05/13 09:19:10;;;;;;;9.48;5.13;;;;;;;;;;4989523;28;20188;-85
2023/05/13 09:21:36;;;;;;;7.70;4.83;;;;;;;;;;4980657;28;20424;-84
2023/05/13 09:24:08;;;;;;;15.45;4.80;;;;;;;;;;4993552;28;20181;-85
2023/05/13 09:26:35;;;;;;;8.97;4.70;;;;;;;;;;4996949;28;20261;-87
2023/05/13 09:29:20;;;;;;;9.07;5.30;;;;;;;;;;4996701;28;20181;-87
2023/05/13 09:31:50;;;;;;;6.15;5.03;;;;;;;;;;5015871;28;20307;-86
2023/05/13 09:34:24;;;;;;;5.30;4.63;;;;;;;;;;5016208;28;20188;-86
2023/05/13 09:37:06;;;;;;;5.90;5.00;;;;;;;;;;5015082;28;20409;-86
2023/05/13 09:39:34;;;;;;;8.93;5.47;;;;;;;;;;5014972;28;20401;-85
2023/05/13 09:42:04;;;;;;;9.45;5.15;;;;;;;;;;5014701;28;20444;-86
2023/05/13 09:44:30;;;;;;;8.13;5.05;;;;;;;;;;5002855;28;20416;-86
2023/05/13 09:46:56;;;;;;;8.57;4.50;;;;;;;;;;4995757;28;20447;-85
2023/05/13 09:49:25;;;;;;;7.85;4.53;;;;;;;;;;4995792;28;20419;-86
2023/05/13 09:51:51;;;;;;;9.27;4.28;;;;;;;;;;4995263;28;20498;-86
2023/05/13 09:54:18;;;;;;;5.95;4.55;;;;;;;;;;4994051;28;20514;-86
2023/05/13 09:56:44;;;;;;;13.48;4.55;;;;;;;;;;4996317;28;20219;-86
2023/05/13 09:59:14;;;;;;;26.52;5.20;;;;;;;;;;4975847;28;20233;-86
2023/05/13 10:01:40;;;;;;;7.35;4.30;;;;;;;;;;4993067;28;20197;-86
2023/05/13 10:04:07;;;;;;;6.97;4.32;;;;;;;;;;4981454;28;20177;-85
2023/05/13 10:06:37;;;;;;;32.13;5.55;;;;;;;;;;4993089;28;20197;-86
2023/05/13 10:09:06;;;;;;;13.63;5.18;;;;;;;;;;4991976;28;20412;-86
2023/05/13 10:11:35;;;;;;;7.53;4.40;;;;;;;;;;4992003;28;20400;-86
2023/05/13 10:14:02;;;;;;;6.80;4.50;;;;;;;;;;4988357;28;20178;-85
2023/05/13 10:16:34;;;;;;;7.18;4.60;;;;;;;;;;4995909;28;20185;-86
2023/05/13 10:19:02;;;;;;;6.90;4.25;;;;;;;;;;5013980;28;20460;-85
2023/05/13 10:21:31;;;;;;;7.60;4.80;;;;;;;;;;4990396;28;20515;-85
2023/05/13 10:23:58;;;;;;;7.32;4.55;;;;;;;;;;5002719;28;20425;-85
2023/05/13 10:26:24;;;;;;;5.80;4.20;;;;;;;;;;5007854;28;20419;-85
2023/05/13 10:28:54;;;;;;;6.97;4.20;;;;;;;;;;4998691;28;20423;-85
2023/05/13 10:31:20;;;;;;;6.80;4.53;;;;;;;;;;5012108;28;20524;-85
2023/05/13 10:33:46;;;;;;;6.45;4.20;;;;;;;;;;5015853;28;20442;-85
2023/05/13 10:36:31;;;;;;;6.55;4.38;;;;;;;;;;5019046;28;20173;-84
2023/05/13 10:39:03;;;;;;;6.03;4.30;;;;;;;;;;5017256;28;20476;-85
2023/05/13 10:41:39;;;;;;;7.85;4.82;;;;;;;;;;5017866;28;20405;-85
2023/05/13 10:44:06;;;;;;;5.85;4.90;;;;;;;;;;5017918;28;20449;-85
2023/05/13 10:46:38;;;;;;;7.45;4.60;;;;;;;;;;5017105;28;20433;-84
2023/05/13 10:49:04;;;;;;;6.07;4.45;;;;;;;;;;5017988;28;20401;-84
2023/05/13 10:51:31;;;;;;;8.98;5.10;;;;;;;;;;5001629;28;20577;-84
2023/05/13 10:53:57;;;;;;;5.50;5.00;;;;;;;;;;5001501;28;20421;-84
2023/05/13 10:56:24;;;;;;;6.60;4.40;;;;;;;;;;5017844;28;20409;-84
2023/05/13 10:59:01;;;;;;;6.10;4.33;;;;;;;;;;5017692;28;20406;-84
2023/05/13 11:01:28;;;;;;;5.93;4.70;;;;;;;;;;5016682;28;20438;-84
2023/05/13 11:03:57;;;;;;;8.10;5.03;;;;;;;;;;5016033;28;20418;-84
2023/05/13 11:06:25;;;;;;;7.30;4.65;;;;;;;;;;5017479;28;20417;-84
2023/05/13 11:08:54;;;;;;;5.23;4.47;;;;;;;;;;5001796;28;20428;-84
2023/05/13 11:11:21;;;;;;;6.55;4.43;;;;;;;;;;5017613;28;20452;-85
2023/05/13 11:14:14;;;;;;;7.20;4.50;;;;;;;;;;5007643;28;20460;-85
2023/05/13 11:16:45;;;;;;;7.65;4.15;;;;;;;;;;5013639;28;20409;-85
2023/05/13 11:19:18;;;;;;;6.45;4.15;;;;;;;;;;5012524;28;20413;-84
2023/05/13 11:21:47;;;;;;;9.90;4.60;;;;;;;;;;5017259;28;20415;-83
2023/05/13 11:24:17;;;;;;;5.43;3.90;;;;;;;;;;5017214;28;20492;-84
2023/05/13 11:26:46;;;;;;;4.50;3.80;;;;;;;;;;5016417;28;20457;-83
2023/05/13 11:29:13;;;;;;;5.38;3.75;;;;;;;;;;5001040;28;20178;-83
2023/05/13 11:31:43;;;;;;;5.68;4.03;;;;;;;;;;4997141;28;20438;-84
2023/05/13 11:34:16;;;;;;;5.25;4.10;;;;;;;;;;4998182;28;20495;-84
2023/05/13 11:36:49;;;;;;;8.23;3.85;;;;;;;;;;4998554;28;20226;-83
2023/05/13 11:39:15;;;;;;;6.30;3.77;;;;;;;;;;5015231;28;20409;-83
2023/05/13 11:41:42;;;;;;;6.38;3.60;;;;;;;;;;5016809;28;20401;-83
2023/05/13 11:44:10;;;;;;;6.07;3.40;;;;;;;;;;5017991;28;20195;-83
2023/05/13 11:46:36;;;;;;;5.40;3.60;;;;;;;;;;5017647;28;20168;-81
2023/05/13 11:49:02;;;;;;;6.38;3.25;;;;;;;;;;4998113;28;20189;-82
2023/05/13 11:51:31;;;;;;;4.40;3.38;;;;;;;;;;4998371;28;20253;-82
2023/05/13 11:54:01;;;;;;;6.45;3.45;;;;;;;;;;4999851;28;20209;-83
2023/05/13 11:56:30;;;;;;;3.58;3.28;;;;;;;;;;5016802;28;20417;-83
2023/05/13 11:59:13;;;;;;;5.28;3.08;;;;;;;;;;5017614;28;20231;-83
2023/05/13 12:01:41;;;;;;;7.68;3.47;;;;;;;;;;5012115;28;20176;-83
2023/05/13 12:04:07;;;;;;;5.03;3.10;;;;;;;;;;5014532;28;20417;-84
2023/05/13 12:06:34;;;;;;;5.15;3.42;;;;;;;;;;5002317;28;20424;-84
2023/05/13 12:09:07;;;;;;;4.63;3.33;;;;;;;;;;5016231;28;20558;-83
2023/05/13 12:11:34;;;;;;;5.00;3.53;;;;;;;;;;5003389;28;20434;-84
2023/05/13 12:14:02;;;;;;;5.90;3.95;;;;;;;;;;5015278;28;20196;-84
2023/05/13 12:16:29;;;;;;;3.75;3.30;;;;;;;;;;4986387;28;20197;-85
2023/05/13 12:19:24;;;;;;;5.78;3.70;;;;;;;;;;5003802;28;20183;-86
2023/05/13 12:21:50;;;;;;;13.18;4.10;;;;;;;;;;5012898;28;20215;-85
2023/05/13 12:24:19;;;;;;;4.72;3.00;;;;;;;;;;5000341;28;20174;-85
2023/05/13 12:26:48;;;;;;;6.82;3.60;;;;;;;;;;5031618;28;20266;-84
2023/05/13 12:29:14;;;;;;;5.13;3.67;;;;;;;;;;5036590;28;20442;-85
2023/05/13 12:32:00;;;;;;;5.93;3.65;;;;;;;;;;5000289;28;20321;-85
2023/05/13 12:34:33;;;;;;;5.70;3.63;;;;;;;;;;5023465;28;20184;-85
2023/05/13 12:37:12;;;;;;;7.60;3.47;;;;;;;;;;5016959;28;20176;-85
2023/05/13 12:39:38;;;;;;;5.30;3.58;;;;;;;;;;5015394;28;20186;-85
2023/05/13 12:42:07;;;;;;;4.82;3.42;;;;;;;;;;5000527;28;20188;-85
2023/05/13 12:44:38;;;;;;;6.63;3.33;;;;;;;;;;5016730;28;20253;-84
2023/05/13 12:47:09;;;;;;;4.45;3.55;;;;;;;;;;5016919;28;20180;-85
2023/05/13 12:49:35;;;;;;;4.03;3.20;;;;;;;;;;5013553;28;20177;-85
2023/05/13 12:52:03;;;;;;;6.75;3.50;;;;;;;;;;5016925;28;20216;-85
2023/05/13 12:54:29;;;;;;;6.35;3.20;;;;;;;;;;5015530;28;20183;-85
2023/05/13 12:56:55;;;;;;;6.25;3.38;;;;;;;;;;5001688;28;20186;-84
2023/05/13 12:59:22;;;;;;;6.32;3.30;;;;;;;;;;4995095;28;20185;-83
2023/05/13 13:01:51;;;;;;;5.20;3.45;;;;;;;;;;4996704;28;20236;-85
2023/05/13 13:04:17;;;;;;;4.72;3.35;;;;;;;;;;4981334;28;20216;-85
2023/05/13 13:06:43;;;;;;;6.20;3.60;;;;;;;;;;5007762;28;20201;-84
2023/05/13 13:09:12;;;;;;;5.57;3.50;;;;;;;;;;4996569;28;20196;-85
2023/05/13 13:11:38;;;;;;;7.28;3.65;;;;;;;;;;5015207;28;20401;-83
2023/05/13 13:14:04;;;;;;;4.82;3.67;;;;;;;;;;4994622;28;20184;-84
2023/05/13 13:16:30;;;;;;;4.95;3.45;;;;;;;;;;5013475;28;20196;-83
2023/05/13 13:18:59;;;;;;;4.57;2.85;;;;;;;;;;5005094;28;20185;-83
2023/05/13 13:21:25;;;;;;;7.40;3.50;;;;;;;;;;4998446;28;20187;-85
2023/05/13 13:23:51;;;;;;;6.40;3.00;;;;;;;;;;4998844;28;20295;-84
2023/05/13 13:26:21;;;;;;;8.35;3.53;;;;;;;;;;5016609;28;20180;-85
2023/05/13 13:28:48;;;;;;;7.07;3.67;;;;;;;;;;5016375;28;20177;-85
2023/05/13 13:31:14;;;;;;;7.85;3.35;;;;;;;;;;5001027;28;20256;-86
2023/05/13 13:33:42;;;;;;;4.15;3.20;;;;;;;;;;5014002;28;20227;-84
2023/05/13 13:36:08;;;;;;;8.82;3.70;;;;;;;;;;5014407;28;20223;-84
2023/05/13 13:38:34;;;;;;;6.18;3.30;;;;;;;;;;5016106;28;20181;-86
2023/05/13 13:41:03;;;;;;;4.65;3.42;;;;;;;;;;5008030;28;20225;-85
2023/05/13 13:43:29;;;;;;;6.57;3.67;;;;;;;;;;4986239;28;20422;-84
2023/05/13 13:45:55;;;;;;;5.53;3.63;;;;;;;;;;5006766;28;20212;-89
2023/05/13 13:48:21;;;;;;;4.50;3.60;;;;;;;;;;5015419;28;20440;-90
2023/05/13 13:50:51;;;;;;;7.40;3.60;;;;;;;;;;5017684;28;20437;-90
2023/05/13 13:53:17;;;;;;;5.45;3.63;;;;;;;;;;5018827;28;20437;-91
2023/05/13 13:55:43;;;;;;;8.07;3.50;;;;;;;;;;5016088;28;20173;-89
2023/05/13 13:58:13;;;;;;;5.97;3.60;;;;;;;;;;4992238;28;20247;-91
2023/05/13 14:00:42;;;;;;;4.97;3.40;;;;;;;;;;5013562;28;20429;-91
2023/05/13 14:03:11;;;;;;;4.47;3.50;;;;;;;;;;5016583;28;20216;-91
2023/05/13 14:05:37;;;;;;;5.75;3.50;;;;;;;;;;5027171;28;20220;-92
2023/05/13 14:08:03;;;;;;;6.15;3.72;;;;;;;;;;5018736;28;20243;-91
2023/05/13 14:10:29;;;;;;;6.72;3.67;;;;;;;;;;5019744;28;20186;-91
2023/05/13 14:12:58;;;;;;;6.43;4.00;;;;;;;;;;5016724;28;20432;-91
2023/05/13 14:15:27;;;;;;;8.43;4.00;;;;;;;;;;5014362;28;20419;-90
2023/05/13 14:17:56;;;;;;;4.55;4.15;;;;;;;;;;5001888;28;20208;-91
2023/05/13 14:20:23;;;;;;;4.10;3.60;;;;;;;;;;5000080;28;20342;-91
2023/05/13 14:22:49;;;;;;;7.97;4.10;;;;;;;;;;5007109;28;20189;-92
2023/05/13 14:25:22;;;;;;;5.07;3.67;;;;;;;;;;5020757;28;20180;-91
2023/05/13 14:27:54;;;;;;;6.10;3.65;;;;;;;;;;5016775;28;20180;-92
2023/05/13 14:30:30;;;;;;;6.05;3.72;;;;;;;;;;5010385;28;20207;-91
2023/05/13 14:32:56;;;;;;;6.82;3.70;;;;;;;;;;4984489;28;20454;-91
2023/05/13 14:35:28;;;;;;;6.57;3.70;;;;;;;;;;4976124;28;20484;-91
2023/05/13 14:38:16;;;;;;;5.10;3.85;;;;;;;;;;4981080;28;20186;-91
2023/05/13 14:40:44;;;;;;;3.90;3.50;;;;;;;;;;5015287;28;20192;-91